Time;durP1;ratioP1;P1;durP2;ratioP2;P2;SDS_P1;SDS_P2;PMS_P1;PMS_P2;Temp;Humidity;BMP_temperature;BMP_pressure;BME280_temperature;BME280_humidity;BME280_pressure;Samples;Min_cycle;Max_cycle;Signal;HPM_P1;HPM_P2
2023/12/18 00:01:37;;;;;;;11.32;9.65;;;;;;;;;;5042520;28;20057;-76
2023/12/18 00:04:09;;;;;;;11.50;10.32;;;;;;;;;;5042701;28;20064;-76
2023/12/18 00:06:39;;;;;;;9.05;8.35;;;;;;;;;;5041032;28;20036;-77
2023/12/18 00:09:10;;;;;;;15.02;13.70;;;;;;;;;;5042555;28;20052;-76
2023/12/18 00:11:41;;;;;;;7.28;6.55;;;;;;;;;;5039639;28;20088;-76
2023/12/18 00:14:12;;;;;;;14.18;12.80;;;;;;;;;;5040752;28;20052;-76
2023/12/18 00:16:42;;;;;;;10.73;9.98;;;;;;;;;;5043045;28;20059;-76
2023/12/18 00:19:13;;;;;;;13.30;10.98;;;;;;;;;;5042494;28;20041;-75
2023/12/18 00:21:44;;;;;;;10.00;9.15;;;;;;;;;;5042383;28;20041;-75
2023/12/18 00:24:16;;;;;;;8.63;8.00;;;;;;;;;;5041666;28;20495;-76
2023/12/18 00:26:47;;;;;;;9.20;8.40;;;;;;;;;;5041714;28;20053;-77
2023/12/18 00:29:17;;;;;;;11.27;9.15;;;;;;;;;;5041677;28;20041;-76
2023/12/18 00:31:48;;;;;;;9.80;8.75;;;;;;;;;;5042027;28;20060;-76
2023/12/18 00:34:18;;;;;;;10.18;9.30;;;;;;;;;;5042151;28;20047;-76
2023/12/18 00:36:49;;;;;;;18.60;12.25;;;;;;;;;;5042113;28;20045;-76
2023/12/18 00:39:20;;;;;;;14.07;12.73;;;;;;;;;;5042776;28;20049;-76
2023/12/18 00:41:51;;;;;;;13.82;11.40;;;;;;;;;;5042387;28;20571;-76
2023/12/18 00:44:22;;;;;;;18.85;13.30;;;;;;;;;;5041910;28;20511;-75
2023/12/18 00:46:52;;;;;;;17.20;10.98;;;;;;;;;;5039842;28;20516;-75
2023/12/18 00:49:22;;;;;;;26.65;24.00;;;;;;;;;;5041298;28;20047;-75
2023/12/18 00:51:53;;;;;;;33.17;21.25;;;;;;;;;;5042281;28;20056;-75
2023/12/18 00:54:26;;;;;;;20.33;16.33;;;;;;;;;;5042076;28;20052;-76
2023/12/18 00:56:57;;;;;;;16.13;14.95;;;;;;;;;;5041782;28;20514;-73
2023/12/18 00:59:28;;;;;;;18.08;16.67;;;;;;;;;;5041200;28;20049;-76
2023/12/18 01:01:58;;;;;;;17.58;16.17;;;;;;;;;;5041143;28;20554;-75
2023/12/18 01:04:29;;;;;;;15.02;13.52;;;;;;;;;;5040198;28;20041;-75
2023/12/18 01:07:03;;;;;;;14.38;13.05;;;;;;;;;;5038391;28;20389;-75
2023/12/18 01:09:33;;;;;;;14.25;12.82;;;;;;;;;;5040173;28;20045;-75
2023/12/18 01:12:04;;;;;;;14.73;13.32;;;;;;;;;;5041197;28;20538;-75
2023/12/18 01:14:35;;;;;;;15.80;14.02;;;;;;;;;;5040676;28;20045;-75
2023/12/18 01:17:06;;;;;;;14.18;12.98;;;;;;;;;;5041434;28;20059;-75
2023/12/18 01:19:37;;;;;;;16.33;15.13;;;;;;;;;;5040389;28;20504;-75
2023/12/18 01:22:07;;;;;;;14.95;13.68;;;;;;;;;;5042077;28;20081;-75
2023/12/18 01:24:38;;;;;;;19.95;17.92;;;;;;;;;;5040101;28;20089;-75
2023/12/18 01:27:09;;;;;;;15.95;14.48;;;;;;;;;;5039817;28;20072;-75
2023/12/18 01:29:40;;;;;;;21.67;19.83;;;;;;;;;;5041728;28;20052;-75
2023/12/18 01:32:11;;;;;;;29.08;26.98;;;;;;;;;;5041769;28;20057;-75
2023/12/18 01:34:41;;;;;;;42.92;39.35;;;;;;;;;;5042072;28;20053;-74
2023/12/18 01:37:12;;;;;;;52.30;48.40;;;;;;;;;;5043603;28;20061;-75
2023/12/18 01:39:44;;;;;;;52.95;48.22;;;;;;;;;;5045518;28;20044;-75
2023/12/18 01:42:14;;;;;;;49.88;46.58;;;;;;;;;;5044788;28;20056;-75
2023/12/18 01:44:44;;;;;;;35.72;32.92;;;;;;;;;;5045453;28;20053;-75
2023/12/18 01:47:16;;;;;;;34.63;31.95;;;;;;;;;;5045147;28;20462;-75
2023/12/18 01:49:49;;;;;;;28.77;26.23;;;;;;;;;;5045233;28;20857;-75
2023/12/18 01:52:19;;;;;;;27.83;24.83;;;;;;;;;;5045515;28;20052;-75
2023/12/18 01:54:50;;;;;;;34.20;28.67;;;;;;;;;;5045877;28;20056;-75
2023/12/18 01:57:23;;;;;;;30.92;28.67;;;;;;;;;;5045575;28;20049;-75
2023/12/18 01:59:56;;;;;;;30.10;27.42;;;;;;;;;;5043197;28;20059;-76
2023/12/18 02:02:27;;;;;;;26.02;23.67;;;;;;;;;;5045523;28;20526;-75
2023/12/18 02:04:58;;;;;;;26.98;24.63;;;;;;;;;;5045304;28;20055;-75
2023/12/18 02:07:29;;;;;;;29.85;27.52;;;;;;;;;;5045353;28;20045;-74
2023/12/18 02:10:01;;;;;;;38.30;35.05;;;;;;;;;;5045517;28;20041;-75
2023/12/18 02:12:32;;;;;;;28.80;26.55;;;;;;;;;;5044899;28;20045;-75
2023/12/18 02:15:04;;;;;;;28.98;26.15;;;;;;;;;;5043925;28;20053;-75
2023/12/18 02:17:34;;;;;;;23.88;21.92;;;;;;;;;;5045415;28;20053;-75
2023/12/18 02:20:09;;;;;;;22.27;19.60;;;;;;;;;;5043326;28;20427;-75
2023/12/18 02:22:49;;;;;;;20.95;19.38;;;;;;;;;;5044815;28;20056;-74
2023/12/18 02:25:21;;;;;;;28.30;25.67;;;;;;;;;;5044377;28;20124;-75
2023/12/18 02:27:51;;;;;;;21.98;20.30;;;;;;;;;;5044627;28;20045;-75
2023/12/18 02:30:25;;;;;;;34.92;31.98;;;;;;;;;;5042986;28;20115;-75
2023/12/18 02:32:56;;;;;;;19.42;17.48;;;;;;;;;;5044852;28;20045;-75
2023/12/18 02:35:26;;;;;;;22.48;20.83;;;;;;;;;;5045225;28;20045;-75
2023/12/18 02:37:57;;;;;;;18.00;16.10;;;;;;;;;;5044308;28;20045;-75
2023/12/18 02:40:29;;;;;;;25.67;23.48;;;;;;;;;;5044769;28;20053;-75
2023/12/18 02:43:00;;;;;;;21.23;19.27;;;;;;;;;;5044869;28;20045;-75
2023/12/18 02:45:31;;;;;;;20.02;18.38;;;;;;;;;;5044526;28;20056;-75
2023/12/18 02:48:02;;;;;;;13.43;12.13;;;;;;;;;;5042907;28;20049;-75
2023/12/18 02:50:33;;;;;;;19.90;17.00;;;;;;;;;;5044632;28;20060;-75
2023/12/18 02:53:04;;;;;;;16.27;14.20;;;;;;;;;;5044473;28;20366;-75
2023/12/18 02:55:34;;;;;;;18.27;16.45;;;;;;;;;;5043585;28;20056;-75
2023/12/18 02:58:04;;;;;;;21.05;16.95;;;;;;;;;;5043799;28;20833;-75
2023/12/18 03:00:37;;;;;;;15.88;12.82;;;;;;;;;;5042724;28;20041;-76
2023/12/18 03:03:08;;;;;;;13.13;11.90;;;;;;;;;;5042032;28;20745;-75
2023/12/18 03:05:39;;;;;;;14.32;12.90;;;;;;;;;;5043605;28;20558;-76
2023/12/18 03:08:10;;;;;;;15.10;13.63;;;;;;;;;;5043669;28;20049;-76
2023/12/18 03:10:40;;;;;;;15.43;14.00;;;;;;;;;;5043666;28;20041;-76
2023/12/18 03:13:10;;;;;;;42.13;38.97;;;;;;;;;;5043117;28;20048;-74
2023/12/18 03:15:41;;;;;;;37.20;34.40;;;;;;;;;;5042852;28;20049;-74
2023/12/18 03:18:12;;;;;;;49.55;45.78;;;;;;;;;;5043444;28;20049;-74
2023/12/18 03:20:43;;;;;;;47.45;44.22;;;;;;;;;;5043709;28;20053;-75
2023/12/18 03:23:13;;;;;;;50.53;47.22;;;;;;;;;;5042334;28;20057;-75
2023/12/18 03:25:44;;;;;;;35.85;32.85;;;;;;;;;;5043740;28;20088;-75
2023/12/18 03:28:16;;;;;;;32.47;30.13;;;;;;;;;;5043143;28;20845;-74
2023/12/18 03:30:46;;;;;;;37.08;34.63;;;;;;;;;;5043654;28;20083;-75
2023/12/18 03:33:19;;;;;;;20.00;18.38;;;;;;;;;;5043740;28;20053;-75
2023/12/18 03:35:50;;;;;;;24.42;22.15;;;;;;;;;;5043096;28;20060;-75
2023/12/18 03:38:21;;;;;;;17.75;16.02;;;;;;;;;;5042580;28;20767;-75
2023/12/18 03:40:51;;;;;;;23.73;21.50;;;;;;;;;;5042719;28;20044;-74
2023/12/18 03:43:26;;;;;;;38.80;35.92;;;;;;;;;;5043511;28;20049;-75
2023/12/18 03:45:57;;;;;;;34.75;31.90;;;;;;;;;;5042702;28;20044;-75
2023/12/18 03:48:27;;;;;;;33.97;31.20;;;;;;;;;;5042897;28;20056;-75
2023/12/18 03:50:57;;;;;;;20.90;17.05;;;;;;;;;;5042862;28;20053;-75
2023/12/18 03:53:28;;;;;;;21.52;19.33;;;;;;;;;;5042406;28;20045;-75
2023/12/18 03:56:00;;;;;;;19.58;17.63;;;;;;;;;;5042361;28;20519;-75
2023/12/18 03:58:31;;;;;;;17.25;15.90;;;;;;;;;;5042723;28;20112;-75
2023/12/18 04:01:01;;;;;;;22.45;20.55;;;;;;;;;;5042336;28;20108;-75
2023/12/18 04:03:31;;;;;;;18.60;16.77;;;;;;;;;;5042656;28;20052;-75
2023/12/18 04:06:07;;;;;;;20.65;18.73;;;;;;;;;;5042486;28;20060;-75
2023/12/18 04:08:39;;;;;;;20.65;19.17;;;;;;;;;;5042555;28;20047;-75
2023/12/18 04:11:16;;;;;;;27.27;25.30;;;;;;;;;;5043758;28;20400;-75
2023/12/18 04:13:46;;;;;;;24.50;22.13;;;;;;;;;;5042585;28;20053;-74
2023/12/18 04:16:16;;;;;;;20.17;17.95;;;;;;;;;;5042268;28;20052;-75
2023/12/18 04:18:49;;;;;;;22.85;20.67;;;;;;;;;;5042304;28;20045;-75
2023/12/18 04:21:21;;;;;;;24.52;22.92;;;;;;;;;;5039779;28;20733;-74
2023/12/18 04:23:51;;;;;;;18.23;16.40;;;;;;;;;;5042274;28;20419;-75
2023/12/18 04:26:22;;;;;;;26.90;24.33;;;;;;;;;;5042132;28;20036;-75
2023/12/18 04:28:51;;;;;;;21.17;19.50;;;;;;;;;;5042715;28;20849;-74
2023/12/18 04:31:23;;;;;;;25.23;23.33;;;;;;;;;;5042439;28;20516;-75
2023/12/18 04:33:54;;;;;;;23.02;21.02;;;;;;;;;;5042855;28;20049;-75
2023/12/18 04:36:25;;;;;;;27.83;25.83;;;;;;;;;;5041204;28;20048;-75
2023/12/18 04:38:56;;;;;;;51.65;47.72;;;;;;;;;;5039838;28;20052;-76
2023/12/18 04:41:27;;;;;;;26.92;24.80;;;;;;;;;;5042586;28;20049;-75
2023/12/18 04:43:58;;;;;;;52.33;48.55;;;;;;;;;;5042373;28;20060;-75
2023/12/18 04:46:33;;;;;;;43.92;41.05;;;;;;;;;;5043344;28;20075;-75
2023/12/18 04:49:07;;;;;;;52.28;48.85;;;;;;;;;;5042042;28;20052;-75
2023/12/18 04:51:37;;;;;;;39.38;36.17;;;;;;;;;;5042281;28;20507;-75
2023/12/18 04:54:09;;;;;;;18.05;16.55;;;;;;;;;;5041460;28;20626;-75
2023/12/18 04:56:40;;;;;;;17.80;16.10;;;;;;;;;;5041830;28;20049;-74
2023/12/18 04:59:11;;;;;;;19.27;17.67;;;;;;;;;;5040322;28;20053;-75
2023/12/18 05:01:43;;;;;;;30.92;28.48;;;;;;;;;;5041395;28;20045;-75
2023/12/18 05:04:14;;;;;;;23.45;21.45;;;;;;;;;;5042206;28;20053;-74
2023/12/18 05:06:44;;;;;;;17.17;15.40;;;;;;;;;;5039707;28;20393;-74
2023/12/18 05:09:14;;;;;;;25.25;23.42;;;;;;;;;;5040957;28;20045;-75
2023/12/18 05:11:45;;;;;;;25.23;22.73;;;;;;;;;;5040784;28;20049;-75
2023/12/18 05:14:17;;;;;;;20.95;19.35;;;;;;;;;;5041291;28;20095;-74
2023/12/18 05:16:47;;;;;;;22.88;21.13;;;;;;;;;;5041977;28;20071;-75
2023/12/18 05:19:18;;;;;;;22.92;20.70;;;;;;;;;;5041237;28;20433;-75
2023/12/18 05:21:48;;;;;;;26.23;24.10;;;;;;;;;;5041753;28;20049;-75
2023/12/18 05:24:19;;;;;;;26.77;24.33;;;;;;;;;;5041070;28;20052;-75
2023/12/18 05:26:49;;;;;;;24.67;21.13;;;;;;;;;;5041251;28;20049;-75
2023/12/18 05:29:20;;;;;;;32.05;29.42;;;;;;;;;;5041223;28;20055;-74
2023/12/18 05:31:50;;;;;;;26.95;24.65;;;;;;;;;;5041703;28;20423;-75
2023/12/18 05:34:20;;;;;;;28.95;25.90;;;;;;;;;;5041261;28;20614;-75
2023/12/18 05:36:50;;;;;;;31.95;29.35;;;;;;;;;;5040893;28;20037;-75
2023/12/18 05:39:21;;;;;;;33.28;30.50;;;;;;;;;;5041540;28;20052;-75
2023/12/18 05:41:51;;;;;;;32.35;29.13;;;;;;;;;;5041027;28;20056;-75
2023/12/18 05:44:21;;;;;;;26.00;23.48;;;;;;;;;;5041563;28;20522;-75
2023/12/18 05:46:52;;;;;;;27.20;24.80;;;;;;;;;;5041410;28;20637;-74
2023/12/18 05:49:24;;;;;;;26.77;24.02;;;;;;;;;;5040466;28;21048;-75
2023/12/18 05:51:55;;;;;;;31.73;28.48;;;;;;;;;;5041043;28;20049;-74
2023/12/18 05:54:25;;;;;;;22.33;20.60;;;;;;;;;;5040975;28;20049;-74
2023/12/18 05:56:57;;;;;;;32.42;29.85;;;;;;;;;;5041056;28;20052;-75
2023/12/18 05:59:27;;;;;;;23.48;21.67;;;;;;;;;;5041311;28;20056;-75
2023/12/18 06:01:57;;;;;;;25.30;23.02;;;;;;;;;;5041482;28;20052;-75
2023/12/18 06:04:29;;;;;;;23.48;19.90;;;;;;;;;;5039158;28;20056;-75
2023/12/18 06:07:00;;;;;;;21.63;19.50;;;;;;;;;;5041347;28;20053;-74
2023/12/18 06:09:30;;;;;;;35.47;32.47;;;;;;;;;;5041047;28;20045;-75
2023/12/18 06:12:01;;;;;;;26.33;23.70;;;;;;;;;;5040579;28;20041;-75
2023/12/18 06:14:31;;;;;;;27.42;24.52;;;;;;;;;;5040770;28;20053;-75
2023/12/18 06:17:02;;;;;;;25.95;19.17;;;;;;;;;;5040589;28;20430;-74
2023/12/18 06:19:34;;;;;;;23.67;18.17;;;;;;;;;;5041074;28;20045;-75
2023/12/18 06:22:05;;;;;;;23.13;20.75;;;;;;;;;;5040974;28;20397;-74
2023/12/18 06:24:34;;;;;;;29.63;22.10;;;;;;;;;;5044605;28;20057;-75
2023/12/18 06:27:06;;;;;;;28.27;25.02;;;;;;;;;;5043589;28;20052;-75
2023/12/18 06:29:37;;;;;;;24.90;22.00;;;;;;;;;;5044450;28;20045;-75
2023/12/18 06:32:07;;;;;;;37.22;33.90;;;;;;;;;;5044119;28;20044;-75
2023/12/18 06:34:42;;;;;;;30.67;27.90;;;;;;;;;;5044003;28;20528;-75
2023/12/18 06:37:13;;;;;;;29.70;26.98;;;;;;;;;;5044697;28;20041;-75
2023/12/18 06:39:46;;;;;;;32.30;29.42;;;;;;;;;;5045219;28;20060;-74
2023/12/18 06:42:16;;;;;;;31.92;29.50;;;;;;;;;;5044036;28;20053;-75
2023/12/18 06:44:46;;;;;;;29.55;26.58;;;;;;;;;;5042078;28;20546;-74
2023/12/18 06:47:16;;;;;;;27.30;24.67;;;;;;;;;;5043980;28;20056;-74
2023/12/18 06:49:47;;;;;;;22.75;20.35;;;;;;;;;;5042519;28;20436;-75
2023/12/18 06:52:18;;;;;;;25.10;22.42;;;;;;;;;;5043482;28;20052;-74
2023/12/18 06:54:48;;;;;;;26.35;23.50;;;;;;;;;;5043566;28;20060;-75
2023/12/18 06:57:18;;;;;;;22.50;20.23;;;;;;;;;;5043783;28;20049;-75
2023/12/18 06:59:50;;;;;;;26.38;22.45;;;;;;;;;;5044231;28;20048;-81
2023/12/18 07:02:20;;;;;;;25.00;22.33;;;;;;;;;;5043274;28;20524;-75
2023/12/18 07:04:50;;;;;;;20.90;17.23;;;;;;;;;;5043390;28;20045;-74
2023/12/18 07:07:20;;;;;;;27.08;18.70;;;;;;;;;;5042321;28;20072;-75
2023/12/18 07:09:54;;;;;;;20.38;18.05;;;;;;;;;;5044005;28;20052;-74
2023/12/18 07:12:25;;;;;;;19.73;17.50;;;;;;;;;;5044265;28;20044;-75
2023/12/18 07:14:56;;;;;;;22.15;19.83;;;;;;;;;;5042832;28;20052;-75
2023/12/18 07:17:26;;;;;;;21.63;17.13;;;;;;;;;;5044480;28;20060;-74
2023/12/18 07:19:57;;;;;;;21.90;16.67;;;;;;;;;;5044088;28;20049;-74
2023/12/18 07:22:27;;;;;;;27.35;24.33;;;;;;;;;;5043371;28;20048;-74
2023/12/18 07:24:57;;;;;;;29.55;18.08;;;;;;;;;;5043530;28;20057;-75
2023/12/18 07:27:27;;;;;;;20.20;17.08;;;;;;;;;;5043644;28;20053;-74
2023/12/18 07:29:58;;;;;;;27.02;19.17;;;;;;;;;;5043189;28;20056;-75
2023/12/18 07:32:28;;;;;;;27.75;19.50;;;;;;;;;;5025881;28;20533;-74
2023/12/18 07:35:00;;;;;;;21.45;17.10;;;;;;;;;;5042611;28;20056;-75
2023/12/18 07:37:32;;;;;;;22.63;17.50;;;;;;;;;;5044937;28;20049;-74
2023/12/18 07:40:03;;;;;;;24.33;21.77;;;;;;;;;;5043402;28;20060;-75
2023/12/18 07:42:34;;;;;;;24.13;22.15;;;;;;;;;;5043020;28;20048;-74
2023/12/18 07:45:05;;;;;;;24.27;21.83;;;;;;;;;;5042770;28;20053;-75
2023/12/18 07:47:37;;;;;;;25.55;22.77;;;;;;;;;;5043306;28;20049;-74
2023/12/18 07:50:09;;;;;;;30.15;25.17;;;;;;;;;;5043361;28;20048;-74
2023/12/18 07:52:40;;;;;;;28.08;25.65;;;;;;;;;;5042583;28;20052;-75
2023/12/18 07:55:11;;;;;;;26.83;24.20;;;;;;;;;;5042846;28;20045;-75
2023/12/18 07:57:42;;;;;;;31.30;28.55;;;;;;;;;;5042715;28;20423;-75
2023/12/18 08:00:13;;;;;;;27.73;25.05;;;;;;;;;;5042303;28;20064;-75
2023/12/18 08:02:44;;;;;;;28.63;26.02;;;;;;;;;;5041912;28;20056;-74
2023/12/18 08:05:15;;;;;;;25.20;22.85;;;;;;;;;;5042944;28;20685;-75
2023/12/18 08:07:46;;;;;;;25.67;22.63;;;;;;;;;;5042393;28;20041;-75
2023/12/18 08:10:16;;;;;;;24.73;21.00;;;;;;;;;;5042435;28;20053;-74
2023/12/18 08:12:47;;;;;;;38.08;34.85;;;;;;;;;;5042742;28;20056;-75
2023/12/18 08:15:18;;;;;;;25.08;18.95;;;;;;;;;;5042421;28;20061;-75
2023/12/18 08:17:48;;;;;;;29.08;18.35;;;;;;;;;;5042214;28;20048;-75
2023/12/18 08:20:18;;;;;;;21.85;16.42;;;;;;;;;;5042567;28;20049;-75
2023/12/18 08:22:49;;;;;;;20.33;18.23;;;;;;;;;;5042084;28;20068;-74
2023/12/18 08:25:21;;;;;;;21.88;19.13;;;;;;;;;;5042213;28;20045;-74
2023/12/18 08:27:51;;;;;;;26.75;17.75;;;;;;;;;;5042600;28;20198;-75
2023/12/18 08:30:21;;;;;;;23.55;19.17;;;;;;;;;;5042540;28;20049;-75
2023/12/18 08:32:52;;;;;;;24.08;21.45;;;;;;;;;;5042188;28;20048;-75
2023/12/18 08:35:23;;;;;;;26.45;18.90;;;;;;;;;;5041758;28;20059;-75
2023/12/18 08:37:53;;;;;;;23.63;17.80;;;;;;;;;;5042303;28;20048;-74
2023/12/18 08:40:23;;;;;;;24.85;22.20;;;;;;;;;;5041540;28;20049;-74
2023/12/18 08:42:54;;;;;;;30.40;27.17;;;;;;;;;;5041924;28;20045;-74
2023/12/18 08:45:24;;;;;;;31.35;28.10;;;;;;;;;;5041306;28;20817;-74
2023/12/18 08:47:59;;;;;;;32.40;28.98;;;;;;;;;;5041050;28;20044;-74
2023/12/18 08:50:29;;;;;;;57.05;52.38;;;;;;;;;;5041388;28;20416;-75
2023/12/18 08:52:59;;;;;;;41.33;37.67;;;;;;;;;;5041338;28;20041;-75
2023/12/18 08:55:29;;;;;;;48.70;44.05;;;;;;;;;;5041279;28;20052;-74
2023/12/18 08:58:00;;;;;;;36.90;33.47;;;;;;;;;;5041203;28;20049;-75
2023/12/18 09:00:30;;;;;;;63.45;58.65;;;;;;;;;;5039803;28;20064;-75
2023/12/18 09:03:01;;;;;;;55.53;50.22;;;;;;;;;;5041762;28;20060;-76
2023/12/18 09:05:32;;;;;;;56.05;51.50;;;;;;;;;;5041717;28;20053;-75
2023/12/18 09:08:06;;;;;;;47.92;42.97;;;;;;;;;;5042382;28;20041;-75
2023/12/18 09:10:37;;;;;;;35.58;32.45;;;;;;;;;;5041770;28;20045;-75
2023/12/18 09:13:07;;;;;;;34.65;31.20;;;;;;;;;;5041945;28;20045;-75
2023/12/18 09:15:40;;;;;;;35.67;32.28;;;;;;;;;;5041779;28;20522;-75
2023/12/18 09:18:11;;;;;;;32.28;28.63;;;;;;;;;;5041261;28;20060;-75
2023/12/18 09:20:42;;;;;;;30.00;27.02;;;;;;;;;;5041428;28;20056;-75
2023/12/18 09:23:12;;;;;;;37.60;34.60;;;;;;;;;;5041810;28;20056;-74
2023/12/18 09:25:43;;;;;;;40.28;36.83;;;;;;;;;;5041408;28;20045;-75
2023/12/18 09:28:14;;;;;;;28.02;25.13;;;;;;;;;;5042714;28;20063;-75
2023/12/18 09:30:45;;;;;;;25.67;23.58;;;;;;;;;;5042129;28;20044;-75
2023/12/18 09:33:15;;;;;;;25.48;22.25;;;;;;;;;;5041395;28;20714;-75
2023/12/18 09:35:46;;;;;;;24.88;22.35;;;;;;;;;;5041024;28;20041;-75
2023/12/18 09:38:17;;;;;;;24.23;21.13;;;;;;;;;;5040868;28;20049;-76
2023/12/18 09:40:47;;;;;;;32.28;29.48;;;;;;;;;;5039449;28;20044;-75
2023/12/18 09:43:21;;;;;;;31.42;28.08;;;;;;;;;;5041371;28;20446;-75
2023/12/18 09:45:52;;;;;;;25.33;22.00;;;;;;;;;;5041989;28;20832;-75
2023/12/18 09:48:23;;;;;;;26.45;23.33;;;;;;;;;;5041496;28;20051;-76
2023/12/18 09:50:55;;;;;;;34.35;31.13;;;;;;;;;;5041782;28;20048;-78
2023/12/18 09:53:26;;;;;;;32.17;29.50;;;;;;;;;;5041274;28;20049;-75
2023/12/18 09:55:57;;;;;;;28.25;25.80;;;;;;;;;;5041330;28;20504;-75
2023/12/18 09:58:30;;;;;;;28.75;26.55;;;;;;;;;;5043735;28;20057;-75
2023/12/18 10:01:01;;;;;;;28.55;25.92;;;;;;;;;;5042360;28;20056;-78
2023/12/18 10:03:32;;;;;;;32.80;29.98;;;;;;;;;;5042839;28;20663;-75
2023/12/18 10:06:02;;;;;;;36.10;33.38;;;;;;;;;;5044609;28;20502;-75
2023/12/18 10:08:33;;;;;;;32.88;30.15;;;;;;;;;;5044576;28;20052;-76
2023/12/18 10:11:04;;;;;;;26.75;24.38;;;;;;;;;;5044594;28;20060;-76
2023/12/18 10:13:35;;;;;;;24.83;21.80;;;;;;;;;;5045395;28;20036;-76
2023/12/18 10:16:06;;;;;;;23.52;21.33;;;;;;;;;;5045187;28;20061;-76
2023/12/18 10:18:37;;;;;;;26.33;22.63;;;;;;;;;;5044574;28;20048;-76
2023/12/18 10:21:12;;;;;;;34.42;26.42;;;;;;;;;;5044783;28;20048;-76
2023/12/18 10:23:44;;;;;;;20.45;18.40;;;;;;;;;;5044588;28;20049;-76
2023/12/18 10:26:14;;;;;;;21.90;19.98;;;;;;;;;;5043989;28;20049;-76
2023/12/18 10:28:46;;;;;;;23.30;21.17;;;;;;;;;;5044975;28;20045;-75
2023/12/18 10:31:21;;;;;;;20.85;18.90;;;;;;;;;;5042589;28;20049;-76
2023/12/18 10:33:53;;;;;;;19.45;17.55;;;;;;;;;;5044455;28;20045;-76
2023/12/18 10:36:25;;;;;;;18.60;16.75;;;;;;;;;;5044006;28;20057;-76
2023/12/18 10:38:59;;;;;;;34.45;32.03;;;;;;;;;;5042101;28;20049;-75
2023/12/18 10:41:36;;;;;;;26.90;24.63;;;;;;;;;;5044768;28;20543;-77
2023/12/18 10:44:10;;;;;;;20.65;19.05;;;;;;;;;;5044683;28;20377;-76
2023/12/18 10:46:43;;;;;;;20.13;18.60;;;;;;;;;;5043855;28;20045;-75
2023/12/18 10:49:15;;;;;;;25.33;21.55;;;;;;;;;;5043791;28;20040;-76
2023/12/18 10:51:47;;;;;;;16.58;15.18;;;;;;;;;;5043612;28;20056;-76
2023/12/18 10:54:19;;;;;;;19.42;17.50;;;;;;;;;;5044484;28;20053;-76
2023/12/18 10:56:52;;;;;;;17.88;16.33;;;;;;;;;;5043336;28;20045;-76
2023/12/18 10:59:23;;;;;;;18.55;16.70;;;;;;;;;;5044000;28;20507;-79
2023/12/18 11:01:56;;;;;;;19.92;17.77;;;;;;;;;;5043787;28;20053;-77
2023/12/18 11:04:26;;;;;;;16.33;14.90;;;;;;;;;;5044277;28;20527;-75
2023/12/18 11:06:59;;;;;;;17.05;14.48;;;;;;;;;;5043574;28;20408;-76
2023/12/18 11:09:30;;;;;;;14.57;12.95;;;;;;;;;;5042746;28;20531;-82
2023/12/18 11:12:02;;;;;;;29.13;26.48;;;;;;;;;;5043300;28;20127;-74
2023/12/18 11:15:01;;;;;;;20.30;11.85;;;;;;;;;;5043804;28;20077;-73
2023/12/18 11:18:00;;;;;;;12.35;9.88;;;;;;;;;;5043340;28;20499;-74
2023/12/18 11:20:40;;;;;;;14.75;13.25;;;;;;;;;;5043622;28;20455;-74
2023/12/18 11:23:11;;;;;;;15.20;10.23;;;;;;;;;;5043496;28;20064;-79
2023/12/18 11:25:47;;;;;;;16.42;14.18;;;;;;;;;;5043103;28;20059;-76
2023/12/18 11:28:24;;;;;;;19.70;16.73;;;;;;;;;;5043270;28;20049;-76
2023/12/18 11:31:01;;;;;;;16.35;8.52;;;;;;;;;;5043023;28;20067;-77
2023/12/18 11:33:32;;;;;;;23.45;10.10;;;;;;;;;;5042297;28;20052;-76
2023/12/18 11:36:13;;;;;;;16.65;9.00;;;;;;;;;;5043317;28;20051;-75
2023/12/18 11:38:43;;;;;;;14.30;9.82;;;;;;;;;;5043179;28;20049;-76
2023/12/18 11:41:44;;;;;;;14.93;11.50;;;;;;;;;;5042999;28;20049;-73
2023/12/18 11:44:17;;;;;;;16.33;9.48;;;;;;;;;;5038009;28;20068;-76
2023/12/18 11:46:51;;;;;;;12.07;8.55;;;;;;;;;;5042798;28;20041;-78
2023/12/18 11:49:23;;;;;;;16.52;10.63;;;;;;;;;;5043131;28;20412;-76
2023/12/18 11:51:56;;;;;;;16.65;15.23;;;;;;;;;;5042154;28;20048;-76
2023/12/18 11:54:28;;;;;;;11.18;8.68;;;;;;;;;;5043399;28;20052;-76
2023/12/18 11:56:59;;;;;;;12.38;9.10;;;;;;;;;;5041781;28;20658;-76
2023/12/18 11:59:30;;;;;;;12.00;9.70;;;;;;;;;;5042881;28;20048;-76
2023/12/18 12:02:02;;;;;;;19.58;17.73;;;;;;;;;;5043923;28;20065;-75
2023/12/18 12:04:33;;;;;;;18.00;16.30;;;;;;;;;;5043774;28;20041;-76
2023/12/18 12:07:04;;;;;;;13.75;12.52;;;;;;;;;;5042534;28;20052;-76
2023/12/18 12:09:34;;;;;;;21.92;20.08;;;;;;;;;;5043733;28;20068;-73
2023/12/18 12:12:06;;;;;;;20.10;18.33;;;;;;;;;;5043854;28;20037;-75
2023/12/18 12:14:37;;;;;;;17.20;15.45;;;;;;;;;;5042670;28;20052;-75
2023/12/18 12:17:07;;;;;;;16.52;10.38;;;;;;;;;;5042406;28;20048;-76
2023/12/18 12:19:43;;;;;;;12.55;11.05;;;;;;;;;;5042370;28;20063;-75
2023/12/18 12:22:15;;;;;;;15.43;14.00;;;;;;;;;;5042810;28;20044;-75
2023/12/18 12:24:46;;;;;;;10.68;8.63;;;;;;;;;;5042877;28;20481;-74
2023/12/18 12:27:17;;;;;;;9.88;7.38;;;;;;;;;;5042992;28;20052;-74
2023/12/18 12:29:53;;;;;;;11.27;9.07;;;;;;;;;;5042890;28;20053;-81
2023/12/18 12:32:25;;;;;;;11.35;9.95;;;;;;;;;;5042330;28;20037;-75
2023/12/18 12:34:57;;;;;;;11.23;8.38;;;;;;;;;;5040782;28;20049;-75
2023/12/18 12:37:30;;;;;;;10.63;9.60;;;;;;;;;;5040134;28;20053;-81
2023/12/18 12:40:05;;;;;;;;;;;;;;;;;;5043011;28;20799;-80
2023/12/18 12:42:41;;;;;;;12.82;8.90;;;;;;;;;;5042376;28;19924;-78
2023/12/18 12:45:12;;;;;;;18.42;16.75;;;;;;;;;;5042066;28;20053;-76
2023/12/18 12:47:43;;;;;;;13.10;10.95;;;;;;;;;;5041521;28;20060;-75
2023/12/18 12:50:15;;;;;;;16.90;10.30;;;;;;;;;;5041762;28;20029;-75
2023/12/18 12:52:47;;;;;;;9.52;8.13;;;;;;;;;;5041682;28;20519;-75
2023/12/18 12:55:20;;;;;;;15.20;7.78;;;;;;;;;;5040385;28;20053;-75
2023/12/18 12:57:50;;;;;;;12.32;9.90;;;;;;;;;;5039287;28;20541;-75
2023/12/18 13:00:21;;;;;;;10.07;7.25;;;;;;;;;;5038795;28;20483;-75
2023/12/18 13:02:52;;;;;;;9.98;8.32;;;;;;;;;;5037616;28;20048;-76
2023/12/18 13:05:24;;;;;;;11.25;8.23;;;;;;;;;;5037841;28;20430;-83
2023/12/18 13:07:56;;;;;;;13.90;9.70;;;;;;;;;;5038989;28;20060;-76
2023/12/18 13:10:28;;;;;;;11.70;9.68;;;;;;;;;;5038838;28;20504;-76
2023/12/18 13:13:00;;;;;;;14.55;9.85;;;;;;;;;;5038972;28;20072;-76
2023/12/18 13:15:31;;;;;;;9.48;8.50;;;;;;;;;;5038730;28;20056;-75
2023/12/18 13:18:01;;;;;;;14.13;12.65;;;;;;;;;;5038303;28;20061;-75
2023/12/18 13:20:32;;;;;;;10.18;8.88;;;;;;;;;;5039012;28;20060;-75
2023/12/18 13:23:02;;;;;;;14.57;8.95;;;;;;;;;;5038191;28;20068;-76
2023/12/18 13:25:33;;;;;;;12.45;9.93;;;;;;;;;;5038371;28;20037;-76
2023/12/18 13:28:04;;;;;;;11.65;8.07;;;;;;;;;;5038686;28;20045;-75
2023/12/18 13:30:35;;;;;;;10.52;9.43;;;;;;;;;;5038136;28;20052;-77
2023/12/18 13:33:06;;;;;;;14.85;10.15;;;;;;;;;;5039257;28;20041;-75
2023/12/18 13:35:36;;;;;;;12.30;11.02;;;;;;;;;;5042320;28;20071;-76
2023/12/18 13:38:07;;;;;;;11.27;9.70;;;;;;;;;;5042420;28;20060;-76
2023/12/18 13:40:38;;;;;;;17.83;16.23;;;;;;;;;;5042732;28;20048;-76
2023/12/18 13:43:09;;;;;;;13.80;8.18;;;;;;;;;;5041969;28;20061;-76
2023/12/18 13:45:40;;;;;;;9.63;8.57;;;;;;;;;;5042478;28;20041;-76
2023/12/18 13:48:11;;;;;;;12.55;9.65;;;;;;;;;;5042114;28;20061;-76
2023/12/18 13:50:42;;;;;;;12.93;8.73;;;;;;;;;;5042451;28;20053;-75
2023/12/18 13:53:13;;;;;;;11.52;9.15;;;;;;;;;;5042339;28;20510;-75
2023/12/18 13:55:43;;;;;;;11.38;10.30;;;;;;;;;;5042670;28;20060;-76
2023/12/18 13:58:15;;;;;;;11.82;9.57;;;;;;;;;;5042300;28;20052;-75
2023/12/18 14:00:46;;;;;;;13.07;10.52;;;;;;;;;;5042459;28;20064;-75
2023/12/18 14:03:17;;;;;;;10.23;9.23;;;;;;;;;;5041208;28;20065;-76
2023/12/18 14:05:47;;;;;;;12.77;9.48;;;;;;;;;;5041354;28;20060;-76
2023/12/18 14:08:18;;;;;;;11.27;9.65;;;;;;;;;;5042993;28;20052;-76
2023/12/18 14:10:50;;;;;;;14.93;10.48;;;;;;;;;;5040787;28;20049;-75
2023/12/18 14:13:21;;;;;;;17.02;10.80;;;;;;;;;;5041218;28;20045;-76
2023/12/18 14:15:52;;;;;;;11.70;8.20;;;;;;;;;;5041471;28;20519;-75
2023/12/18 14:18:22;;;;;;;12.27;10.70;;;;;;;;;;5041494;28;20063;-75
2023/12/18 14:20:52;;;;;;;8.73;7.82;;;;;;;;;;5041364;28;20531;-75
2023/12/18 14:23:23;;;;;;;12.02;8.68;;;;;;;;;;5041560;28;20037;-76
2023/12/18 14:25:55;;;;;;;9.02;8.23;;;;;;;;;;5041477;28;20060;-76
2023/12/18 14:28:25;;;;;;;11.63;8.10;;;;;;;;;;5042449;28;20048;-75
2023/12/18 14:30:56;;;;;;;12.18;8.60;;;;;;;;;;5041300;28;20056;-75
2023/12/18 14:33:26;;;;;;;13.20;11.48;;;;;;;;;;5041415;28;20045;-75
2023/12/18 14:35:57;;;;;;;13.85;10.00;;;;;;;;;;5041755;28;20053;-78
2023/12/18 14:38:29;;;;;;;9.18;8.27;;;;;;;;;;5041059;28;20415;-76
2023/12/18 14:41:02;;;;;;;16.27;9.23;;;;;;;;;;5042135;28;20052;-75
2023/12/18 14:43:34;;;;;;;;;;;;;;;;;;5042315;28;20614;-78
2023/12/18 14:46:05;;;;;;;12.45;7.78;;;;;;;;;;5041905;28;19924;-78